sensor_id;sensor_type;location;lat;lon;timestamp;pressure;altitude;pressure_sealevel;temperature;humidity
45253;BME280;63171;50.520;30.486;2022-12-07T00:00:40;100384.28;;;-4.11;98.91
45253;BME280;63171;50.520;30.486;2022-12-07T00:01:31;100397.13;;;-4.01;99.01
45253;BME280;63171;50.520;30.486;2022-12-07T00:02:22;100399.66;;;-4.10;98.69
45253;BME280;63171;50.520;30.486;2022-12-07T00:03:12;100392.81;;;-4.11;98.50
45253;BME280;63171;50.520;30.486;2022-12-07T00:04:03;100399.59;;;-4.16;98.64
45253;BME280;63171;50.520;30.486;2022-12-07T00:04:54;100395.31;;;-4.20;98.27
45253;BME280;63171;50.520;30.486;2022-12-07T00:05:44;100390.25;;;-4.11;98.46
45253;BME280;63171;50.520;30.486;2022-12-07T00:06:38;100405.63;;;-4.05;98.54
45253;BME280;63171;50.520;30.486;2022-12-07T00:07:28;100396.22;;;-4.13;98.63
45253;BME280;63171;50.520;30.486;2022-12-07T00:08:18;100389.34;;;-4.21;98.18
45253;BME280;63171;50.520;30.486;2022-12-07T00:09:12;100391.94;;;-4.14;98.14
45253;BME280;63171;50.520;30.486;2022-12-07T00:10:03;100387.72;;;-4.09;98.16
45253;BME280;63171;50.520;30.486;2022-12-07T00:10:53;100392.91;;;-3.96;98.16
45253;BME280;63171;50.520;30.486;2022-12-07T00:11:45;100388.66;;;-3.91;98.04
45253;BME280;63171;50.520;30.486;2022-12-07T00:12:37;100390.34;;;-3.91;98.13
45253;BME280;63171;50.520;30.486;2022-12-07T00:13:29;100398.88;;;-3.91;97.94
45253;BME280;63171;50.520;30.486;2022-12-07T00:14:19;100394.59;;;-3.99;97.79
45253;BME280;63171;50.520;30.486;2022-12-07T00:15:10;100419.25;;;-4.07;97.69
45253;BME280;63171;50.520;30.486;2022-12-07T00:16:00;100403.91;;;-4.12;97.63
45253;BME280;63171;50.520;30.486;2022-12-07T00:16:52;100408.09;;;-4.19;97.40
45253;BME280;63171;50.520;30.486;2022-12-07T00:17:41;100407.25;;;-4.16;97.48
45253;BME280;63171;50.520;30.486;2022-12-07T00:18:32;100384.25;;;-4.18;97.60
45253;BME280;63171;50.520;30.486;2022-12-07T00:19:22;100397.94;;;-4.12;97.54
45253;BME280;63171;50.520;30.486;2022-12-07T00:20:13;100385.16;;;-4.08;97.44
45253;BME280;63171;50.520;30.486;2022-12-07T00:21:05;100406.47;;;-4.10;97.30
45253;BME280;63171;50.520;30.486;2022-12-07T00:21:57;100394.47;;;-4.21;96.99
45253;BME280;63171;50.520;30.486;2022-12-07T00:22:47;100392.75;;;-4.22;97.13
45253;BME280;63171;50.520;30.486;2022-12-07T00:23:38;100387.63;;;-4.26;97.07
45253;BME280;63171;50.520;30.486;2022-12-07T00:24:27;100382.53;;;-4.23;96.95
45253;BME280;63171;50.520;30.486;2022-12-07T00:25:18;100382.50;;;-4.25;96.87
45253;BME280;63171;50.520;30.486;2022-12-07T00:26:10;100379.97;;;-4.20;96.96
45253;BME280;63171;50.520;30.486;2022-12-07T00:27:01;100381.75;;;-4.07;96.96
45253;BME280;63171;50.520;30.486;2022-12-07T00:27:52;100386.84;;;-4.13;97.06
45253;BME280;63171;50.520;30.486;2022-12-07T00:28:44;100393.66;;;-4.13;96.84
45253;BME280;63171;50.520;30.486;2022-12-07T00:29:35;100380.91;;;-4.07;96.89
45253;BME280;63171;50.520;30.486;2022-12-07T00:30:26;100385.16;;;-4.03;96.79
45253;BME280;63171;50.520;30.486;2022-12-07T00:31:18;100378.34;;;-4.03;96.86
45253;BME280;63171;50.520;30.486;2022-12-07T00:32:08;100375.78;;;-4.06;96.72
45253;BME280;63171;50.520;30.486;2022-12-07T00:32:59;100377.53;;;-3.99;96.56
45253;BME280;63171;50.520;30.486;2022-12-07T00:33:49;100375.75;;;-4.13;96.53
45253;BME280;63171;50.520;30.486;2022-12-07T00:34:39;100381.66;;;-4.25;96.47
45253;BME280;63171;50.520;30.486;2022-12-07T00:35:29;100377.41;;;-4.19;96.43
45253;BME280;63171;50.520;30.486;2022-12-07T00:36:22;100374.94;;;-4.09;96.37
45253;BME280;63171;50.520;30.486;2022-12-07T00:37:13;100384.31;;;-4.08;96.41
45253;BME280;63171;50.520;30.486;2022-12-07T00:38:04;100376.63;;;-4.07;96.29
45253;BME280;63171;50.520;30.486;2022-12-07T00:38:54;100378.34;;;-4.09;96.29
45253;BME280;63171;50.520;30.486;2022-12-07T00:39:47;100391.97;;;-4.07;96.25
45253;BME280;63171;50.520;30.486;2022-12-07T00:40:37;100374.06;;;-4.07;96.32
45253;BME280;63171;50.520;30.486;2022-12-07T00:41:27;100362.19;;;-4.00;96.26
45253;BME280;63171;50.520;30.486;2022-12-07T00:42:17;100360.50;;;-3.94;96.19
45253;BME280;63171;50.520;30.486;2022-12-07T00:43:08;100368.22;;;-3.84;96.26
45253;BME280;63171;50.520;30.486;2022-12-07T00:43:58;100367.38;;;-3.83;96.05
45253;BME280;63171;50.520;30.486;2022-12-07T00:44:48;100366.47;;;-3.98;96.15
45253;BME280;63171;50.520;30.486;2022-12-07T00:45:38;100371.50;;;-4.10;95.85
45253;BME280;63171;50.520;30.486;2022-12-07T00:46:29;100369.81;;;-4.08;95.83
45253;BME280;63171;50.520;30.486;2022-12-07T00:47:19;100357.03;;;-4.06;95.81
45253;BME280;63171;50.520;30.486;2022-12-07T00:48:10;100371.50;;;-4.10;95.83
45253;BME280;63171;50.520;30.486;2022-12-07T00:49:00;100364.66;;;-4.14;95.67
45253;BME280;63171;50.520;30.486;2022-12-07T00:49:51;100359.56;;;-4.12;95.62
45253;BME280;63171;50.520;30.486;2022-12-07T00:50:41;100362.97;;;-4.12;95.43
45253;BME280;63171;50.520;30.486;2022-12-07T00:51:31;100363.78;;;-4.14;95.52
45253;BME280;63171;50.520;30.486;2022-12-07T00:52:22;100367.25;;;-4.08;95.60
45253;BME280;63171;50.520;30.486;2022-12-07T00:53:13;100356.16;;;-4.08;95.54
45253;BME280;63171;50.520;30.486;2022-12-07T00:54:04;100363.84;;;-4.08;95.47
45253;BME280;63171;50.520;30.486;2022-12-07T00:54:54;100354.47;;;-4.11;95.34
45253;BME280;63171;50.520;30.486;2022-12-07T00:55:45;100348.50;;;-4.08;95.45
45253;BME280;63171;50.520;30.486;2022-12-07T00:56:36;100363.00;;;-4.06;95.52
45253;BME280;63171;50.520;30.486;2022-12-07T00:57:26;100355.34;;;-4.01;95.39
45253;BME280;63171;50.520;30.486;2022-12-07T00:58:16;100347.66;;;-4.06;95.32
45253;BME280;63171;50.520;30.486;2022-12-07T00:59:06;100342.59;;;-4.00;95.32
45253;BME280;63171;50.520;30.486;2022-12-07T00:59:57;100344.28;;;-4.00;95.26
45253;BME280;63171;50.520;30.486;2022-12-07T01:02:39;100351.00;;;-4.18;95.00
45253;BME280;63171;50.520;30.486;2022-12-07T01:03:31;100356.97;;;-4.19;94.83
45253;BME280;63171;50.520;30.486;2022-12-07T01:04:20;100356.97;;;-4.16;94.80
45253;BME280;63171;50.520;30.486;2022-12-07T01:05:11;100336.56;;;-4.09;95.04
45253;BME280;63171;50.520;30.486;2022-12-07T01:06:03;100361.34;;;-3.99;95.12
45253;BME280;63171;50.520;30.486;2022-12-07T01:06:54;100351.91;;;-4.08;94.85
45253;BME280;63171;50.520;30.486;2022-12-07T01:07:45;100346.78;;;-4.06;94.90
45253;BME280;63171;50.520;30.486;2022-12-07T01:08:36;100345.88;;;-4.14;94.67
45253;BME280;63171;50.520;30.486;2022-12-07T01:09:25;100341.66;;;-4.12;94.80
45253;BME280;63171;50.520;30.486;2022-12-07T01:10:16;100340.81;;;-4.10;94.80
45253;BME280;63171;50.520;30.486;2022-12-07T01:11:07;100346.78;;;-4.09;94.72
45253;BME280;63171;50.520;30.486;2022-12-07T01:11:58;100327.19;;;-4.10;94.69
45253;BME280;63171;50.520;30.486;2022-12-07T01:12:48;100333.19;;;-3.99;94.74
45253;BME280;63171;50.520;30.486;2022-12-07T01:13:38;100341.72;;;-3.99;94.70
45253;BME280;63171;50.520;30.486;2022-12-07T01:14:28;100325.53;;;-3.98;94.80
45253;BME280;63171;50.520;30.486;2022-12-07T01:15:19;100329.78;;;-4.00;94.78
45253;BME280;63171;50.520;30.486;2022-12-07T01:16:11;100317.81;;;-4.05;94.59
45253;BME280;63171;50.520;30.486;2022-12-07T01:17:01;100317.00;;;-3.91;94.46
45253;BME280;63171;50.520;30.486;2022-12-07T01:17:53;100324.69;;;-3.92;94.79
45253;BME280;63171;50.520;30.486;2022-12-07T01:18:46;100322.97;;;-3.99;94.55
45253;BME280;63171;50.520;30.486;2022-12-07T01:19:37;100322.06;;;-4.12;94.55
45253;BME280;63171;50.520;30.486;2022-12-07T01:20:28;100327.19;;;-4.04;94.54
45253;BME280;63171;50.520;30.486;2022-12-07T01:21:19;100323.81;;;-3.97;94.61
45253;BME280;63171;50.520;30.486;2022-12-07T01:22:10;100313.59;;;-3.96;94.68
45253;BME280;63171;50.520;30.486;2022-12-07T01:23:02;100310.19;;;-3.92;94.53
45253;BME280;63171;50.520;30.486;2022-12-07T01:23:53;100306.78;;;-3.89;94.67
45253;BME280;63171;50.520;30.486;2022-12-07T01:24:43;100307.63;;;-3.90;94.44
45253;BME280;63171;50.520;30.486;2022-12-07T01:25:36;100310.13;;;-4.01;94.52
45253;BME280;63171;50.520;30.486;2022-12-07T01:26:26;100309.31;;;-3.95;94.46
45253;BME280;63171;50.520;30.486;2022-12-07T01:27:18;100299.09;;;-3.94;94.64
45253;BME280;63171;50.520;30.486;2022-12-07T01:28:08;100301.66;;;-3.92;94.64
45253;BME280;63171;50.520;30.486;2022-12-07T01:29:01;100302.47;;;-4.01;94.18
45253;BME280;63171;50.520;30.486;2022-12-07T01:29:51;100305.06;;;-3.96;94.73
45253;BME280;63171;50.520;30.486;2022-12-07T01:30:42;100295.69;;;-3.99;94.27
45253;BME280;63171;50.520;30.486;2022-12-07T01:31:32;100295.69;;;-3.93;94.52
45253;BME280;63171;50.520;30.486;2022-12-07T01:32:22;100288.00;;;-3.88;94.60
45253;BME280;63171;50.520;30.486;2022-12-07T01:33:12;100288.91;;;-3.75;94.69
45253;BME280;63171;50.520;30.486;2022-12-07T01:34:03;100284.59;;;-3.90;94.85
45253;BME280;63171;50.520;30.486;2022-12-07T01:34:52;100290.59;;;-3.83;94.45
45253;BME280;63171;50.520;30.486;2022-12-07T01:35:43;100283.75;;;-3.88;94.71
45253;BME280;63171;50.520;30.486;2022-12-07T01:36:35;100291.41;;;-3.95;94.80
45253;BME280;63171;50.520;30.486;2022-12-07T01:37:27;100301.66;;;-3.88;94.69
45253;BME280;63171;50.520;30.486;2022-12-07T01:38:18;100284.59;;;-3.93;94.99
45253;BME280;63171;50.520;30.486;2022-12-07T01:39:09;100288.00;;;-3.99;94.67
45253;BME280;63171;50.520;30.486;2022-12-07T01:39:59;100297.34;;;-4.02;94.54
45253;BME280;63171;50.520;30.486;2022-12-07T01:40:54;100290.53;;;-4.05;94.34
45253;BME280;63171;50.520;30.486;2022-12-07T01:41:44;100286.28;;;-4.01;94.62
45253;BME280;63171;50.520;30.486;2022-12-07T01:42:35;100289.72;;;-3.93;94.68
45253;BME280;63171;50.520;30.486;2022-12-07T01:43:26;100293.13;;;-3.91;94.59
45253;BME280;63171;50.520;30.486;2022-12-07T01:44:20;100288.00;;;-3.93;94.99
45253;BME280;63171;50.520;30.486;2022-12-07T01:46:26;100287.16;;;-3.89;94.69
45253;BME280;63171;50.520;30.486;2022-12-07T01:47:17;100281.19;;;-3.94;94.75
45253;BME280;63171;50.520;30.486;2022-12-07T01:48:07;100279.53;;;-3.85;94.60
45253;BME280;63171;50.520;30.486;2022-12-07T01:49:00;100271.00;;;-3.83;94.79
45253;BME280;63171;50.520;30.486;2022-12-07T01:49:50;100271.88;;;-3.73;94.99
45253;BME280;63171;50.520;30.486;2022-12-07T01:50:42;100273.59;;;-3.74;94.94
45253;BME280;63171;50.520;30.486;2022-12-07T01:51:33;100277.00;;;-3.73;94.97
45253;BME280;63171;50.520;30.486;2022-12-07T01:52:28;100274.44;;;-3.73;95.06
45253;BME280;63171;50.520;30.486;2022-12-07T01:53:21;100271.00;;;-3.81;94.99
45253;BME280;63171;50.520;30.486;2022-12-07T01:54:16;100277.84;;;-3.71;95.07
45253;BME280;63171;50.520;30.486;2022-12-07T01:55:09;100278.72;;;-3.60;95.24
45253;BME280;63171;50.520;30.486;2022-12-07T01:56:01;100279.56;;;-3.70;95.09
45253;BME280;63171;50.520;30.486;2022-12-07T01:56:53;100282.09;;;-3.70;95.29
45253;BME280;63171;50.520;30.486;2022-12-07T01:57:47;100273.56;;;-3.75;95.17
45253;BME280;63171;50.520;30.486;2022-12-07T01:58:38;100276.09;;;-3.75;95.23
45253;BME280;63171;50.520;30.486;2022-12-07T01:59:29;100269.28;;;-3.75;95.03
45253;BME280;63171;50.520;30.486;2022-12-07T02:00:19;100268.47;;;-3.71;95.23
45253;BME280;63171;50.520;30.486;2022-12-07T02:01:09;100279.56;;;-3.67;95.41
45253;BME280;63171;50.520;30.486;2022-12-07T02:02:02;100278.66;;;-3.77;95.24
45253;BME280;63171;50.520;30.486;2022-12-07T02:02:57;100276.06;;;-3.89;95.25
45253;BME280;63171;50.520;30.486;2022-12-07T02:03:49;100269.28;;;-3.79;95.40
45253;BME280;63171;50.520;30.486;2022-12-07T02:04:40;100281.22;;;-3.81;95.50
45253;BME280;63171;50.520;30.486;2022-12-07T02:05:31;100296.56;;;-3.86;95.22
45253;BME280;63171;50.520;30.486;2022-12-07T02:06:24;100279.53;;;-3.85;95.24
45253;BME280;63171;50.520;30.486;2022-12-07T02:07:15;100275.25;;;-3.77;95.48
45253;BME280;63171;50.520;30.486;2022-12-07T02:08:07;100268.44;;;-3.77;95.52
45253;BME280;63171;50.520;30.486;2022-12-07T02:08:58;100278.69;;;-3.69;95.80
45253;BME280;63171;50.520;30.486;2022-12-07T02:09:49;100275.28;;;-3.73;95.54
45253;BME280;63171;50.520;30.486;2022-12-07T02:10:39;100271.88;;;-3.72;95.50
45253;BME280;63171;50.520;30.486;2022-12-07T02:11:30;100265.91;;;-3.72;95.55
45253;BME280;63171;50.520;30.486;2022-12-07T02:12:20;100269.31;;;-3.67;95.74
45253;BME280;63171;50.520;30.486;2022-12-07T02:13:15;100263.38;;;-3.60;96.00
45253;BME280;63171;50.520;30.486;2022-12-07T02:14:06;100259.97;;;-3.47;95.94
45253;BME280;63171;50.520;30.486;2022-12-07T02:14:57;100267.66;;;-3.44;95.89
45253;BME280;63171;50.520;30.486;2022-12-07T02:16:08;100262.50;;;-3.51;95.99
45253;BME280;63171;50.520;30.486;2022-12-07T02:17:08;100259.94;;;-3.50;96.05
45253;BME280;63171;50.520;30.486;2022-12-07T02:18:05;100267.63;;;-3.51;95.87
45253;BME280;63171;50.520;30.486;2022-12-07T02:19:14;100260.78;;;-3.48;96.24
45253;BME280;63171;50.520;30.486;2022-12-07T02:20:22;100266.78;;;-3.41;96.25
45253;BME280;63171;50.520;30.486;2022-12-07T02:21:21;100256.53;;;-3.41;96.33
45253;BME280;63171;50.520;30.486;2022-12-07T02:22:32;100250.56;;;-3.36;96.37
45253;BME280;63171;50.520;30.486;2022-12-07T02:23:48;100257.41;;;-3.45;96.34
45253;BME280;63171;50.520;30.486;2022-12-07T02:24:54;100246.31;;;-3.57;96.24
45253;BME280;63171;50.520;30.486;2022-12-07T02:25:58;100250.56;;;-3.57;96.29
45253;BME280;63171;50.520;30.486;2022-12-07T02:27:10;100251.41;;;-3.52;96.58
45253;BME280;63171;50.520;30.486;2022-12-07T02:28:06;100251.41;;;-3.47;96.56
45253;BME280;63171;50.520;30.486;2022-12-07T02:29:10;100253.13;;;-3.42;96.58
45253;BME280;63171;50.520;30.486;2022-12-07T02:30:06;100248.84;;;-3.37;96.83
45253;BME280;63171;50.520;30.486;2022-12-07T02:31:01;100258.25;;;-3.42;96.77
45253;BME280;63171;50.520;30.486;2022-12-07T02:32:01;100256.53;;;-3.40;96.70
45253;BME280;63171;50.520;30.486;2022-12-07T02:32:57;100250.56;;;-3.51;96.65
45253;BME280;63171;50.520;30.486;2022-12-07T02:33:56;100237.78;;;-3.45;96.98
45253;BME280;63171;50.520;30.486;2022-12-07T02:34:49;100251.41;;;-3.40;97.22
45253;BME280;63171;50.520;30.486;2022-12-07T02:35:44;100246.28;;;-3.50;96.95
45253;BME280;63171;50.520;30.486;2022-12-07T02:36:40;100235.19;;;-3.54;97.06
45253;BME280;63171;50.520;30.486;2022-12-07T02:37:36;100252.28;;;-3.56;97.23
45253;BME280;63171;50.520;30.486;2022-12-07T02:38:31;100254.84;;;-3.58;97.17
45253;BME280;63171;50.520;30.486;2022-12-07T02:39:32;100245.44;;;-3.54;97.29
45253;BME280;63171;50.520;30.486;2022-12-07T02:40:29;100243.72;;;-3.53;97.31
45253;BME280;63171;50.520;30.486;2022-12-07T02:41:24;100244.59;;;-3.38;97.74
45253;BME280;63171;50.520;30.486;2022-12-07T02:42:18;100245.44;;;-3.55;97.50
45253;BME280;63171;50.520;30.486;2022-12-07T02:43:13;100242.88;;;-3.49;97.70
45253;BME280;63171;50.520;30.486;2022-12-07T02:44:09;100243.75;;;-3.46;97.70
45253;BME280;63171;50.520;30.486;2022-12-07T02:45:03;100240.31;;;-3.40;97.85
45253;BME280;63171;50.520;30.486;2022-12-07T02:45:56;100234.38;;;-3.45;98.02
45253;BME280;63171;50.520;30.486;2022-12-07T02:46:52;100246.31;;;-3.57;98.17
45253;BME280;63171;50.520;30.486;2022-12-07T02:47:44;100246.31;;;-3.58;97.95
45253;BME280;63171;50.520;30.486;2022-12-07T02:48:38;100239.47;;;-3.59;98.15
45253;BME280;63171;50.520;30.486;2022-12-07T02:49:30;100237.75;;;-3.49;98.45
45253;BME280;63171;50.520;30.486;2022-12-07T02:50:21;100242.03;;;-3.54;98.36
45253;BME280;63171;50.520;30.486;2022-12-07T02:51:11;100241.19;;;-3.58;98.45
45253;BME280;63171;50.520;30.486;2022-12-07T02:52:02;100248.88;;;-3.60;98.33
45253;BME280;63171;50.520;30.486;2022-12-07T02:52:52;100248.84;;;-3.67;98.55
45253;BME280;63171;50.520;30.486;2022-12-07T02:53:44;100245.44;;;-3.60;98.86
45253;BME280;63171;50.520;30.486;2022-12-07T02:54:34;100230.94;;;-3.55;99.12
45253;BME280;63171;50.520;30.486;2022-12-07T02:55:31;100238.63;;;-3.40;99.55
45253;BME280;63171;50.520;30.486;2022-12-07T02:56:28;100224.94;;;-3.48;99.19
45253;BME280;63171;50.520;30.486;2022-12-07T02:57:37;100237.75;;;-3.51;99.45
45253;BME280;63171;50.520;30.486;2022-12-07T02:58:37;100236.91;;;-3.41;99.71
45253;BME280;63171;50.520;30.486;2022-12-07T02:59:41;100236.06;;;-3.35;99.82
45253;BME280;63171;50.520;30.486;2022-12-07T03:00:44;100231.78;;;-3.53;99.89
45253;BME280;63171;50.520;30.486;2022-12-07T03:01:45;100224.97;;;-3.49;99.96
45253;BME280;63171;50.520;30.486;2022-12-07T03:02:50;100231.78;;;-3.56;100.00
45253;BME280;63171;50.520;30.486;2022-12-07T03:03:48;100241.19;;;-3.60;100.00
45253;BME280;63171;50.520;30.486;2022-12-07T03:04:46;100218.13;;;-3.53;100.00
45253;BME280;63171;50.520;30.486;2022-12-07T03:06:00;100235.22;;;-3.59;100.00
45253;BME280;63171;50.520;30.486;2022-12-07T03:07:00;100214.72;;;-3.48;100.00
45253;BME280;63171;50.520;30.486;2022-12-07T03:07:57;100219.84;;;-3.43;100.00
45253;BME280;63171;50.520;30.486;2022-12-07T03:08:54;100231.78;;;-3.48;100.00
45253;BME280;63171;50.520;30.486;2022-12-07T03:09:55;100244.59;;;-3.47;100.00
45253;BME280;63171;50.520;30.486;2022-12-07T03:10:55;100219.00;;;-3.45;100.00
45253;BME280;63171;50.520;30.486;2022-12-07T03:11:50;100229.22;;;-3.50;100.00
45253;BME280;63171;50.520;30.486;2022-12-07T03:12:46;100228.38;;;-3.50;100.00
45253;BME280;63171;50.520;30.486;2022-12-07T03:13:47;100210.47;;;-3.55;100.00
45253;BME280;63171;50.520;30.486;2022-12-07T03:14:43;100236.06;;;-3.50;100.00
45253;BME280;63171;50.520;30.486;2022-12-07T03:15:39;100220.69;;;-3.58;100.00
45253;BME280;63171;50.520;30.486;2022-12-07T03:16:33;100226.66;;;-3.67;100.00
45253;BME280;63171;50.520;30.486;2022-12-07T03:17:29;100215.56;;;-3.63;100.00
45253;BME280;63171;50.520;30.486;2022-12-07T03:18:23;100217.28;;;-3.60;100.00
45253;BME280;63171;50.520;30.486;2022-12-07T03:19:17;100219.00;;;-3.59;100.00
45253;BME280;63171;50.520;30.486;2022-12-07T03:20:09;100213.03;;;-3.60;100.00
45253;BME280;63171;50.520;30.486;2022-12-07T03:21:05;100221.56;;;-3.54;100.00
45253;BME280;63171;50.520;30.486;2022-12-07T03:21:57;100233.50;;;-3.58;100.00
45253;BME280;63171;50.520;30.486;2022-12-07T03:22:52;100204.50;;;-3.60;100.00
45253;BME280;63171;50.520;30.486;2022-12-07T03:23:45;100201.06;;;-3.56;100.00
45253;BME280;63171;50.520;30.486;2022-12-07T03:24:40;100215.59;;;-3.41;100.00
45253;BME280;63171;50.520;30.486;2022-12-07T03:25:32;100212.16;;;-3.40;100.00
45253;BME280;63171;50.520;30.486;2022-12-07T03:26:30;100205.34;;;-3.40;100.00
45253;BME280;63171;50.520;30.486;2022-12-07T03:27:23;100217.28;;;-3.34;100.00
45253;BME280;63171;50.520;30.486;2022-12-07T03:28:18;100211.31;;;-3.32;100.00
45253;BME280;63171;50.520;30.486;2022-12-07T03:29:14;100207.91;;;-3.18;100.00
45253;BME280;63171;50.520;30.486;2022-12-07T03:30:13;100207.88;;;-3.23;100.00
45253;BME280;63171;50.520;30.486;2022-12-07T03:31:10;100205.31;;;-3.35;100.00
45253;BME280;63171;50.520;30.486;2022-12-07T03:32:05;100202.78;;;-3.32;100.00
45253;BME280;63171;50.520;30.486;2022-12-07T03:33:02;100225.81;;;-3.24;100.00
45253;BME280;63171;50.520;30.486;2022-12-07T03:34:00;100197.66;;;-3.37;100.00
45253;BME280;63171;50.520;30.486;2022-12-07T03:34:57;100200.19;;;-3.35;100.00
45253;BME280;63171;50.520;30.486;2022-12-07T03:35:52;100204.50;;;-3.45;100.00
45253;BME280;63171;50.520;30.486;2022-12-07T03:36:48;100190.84;;;-3.47;100.00
45253;BME280;63171;50.520;30.486;2022-12-07T03:37:44;100192.53;;;-3.40;100.00
45253;BME280;63171;50.520;30.486;2022-12-07T03:38:38;100189.97;;;-3.43;100.00
45253;BME280;63171;50.520;30.486;2022-12-07T03:39:34;100188.25;;;-3.50;100.00
45253;BME280;63171;50.520;30.486;2022-12-07T03:40:32;100189.13;;;-3.46;100.00
45253;BME280;63171;50.520;30.486;2022-12-07T03:41:26;100182.31;;;-3.43;100.00
45253;BME280;63171;50.520;30.486;2022-12-07T03:42:16;100172.06;;;-3.43;100.00
45253;BME280;63171;50.520;30.486;2022-12-07T03:43:07;100179.72;;;-3.49;100.00
45253;BME280;63171;50.520;30.486;2022-12-07T03:43:57;100203.66;;;-3.47;100.00
45253;BME280;63171;50.520;30.486;2022-12-07T03:44:48;100186.53;;;-3.48;100.00
45253;BME280;63171;50.520;30.486;2022-12-07T03:45:42;100179.72;;;-3.49;100.00
45253;BME280;63171;50.520;30.486;2022-12-07T03:46:42;100179.75;;;-3.53;100.00
45253;BME280;63171;50.520;30.486;2022-12-07T03:47:36;100178.88;;;-3.54;100.00
45253;BME280;63171;50.520;30.486;2022-12-07T03:48:34;100184.00;;;-3.54;100.00
45253;BME280;63171;50.520;30.486;2022-12-07T03:49:31;100176.31;;;-3.48;100.00
45253;BME280;63171;50.520;30.486;2022-12-07T03:50:28;100189.13;;;-3.51;100.00
45253;BME280;63171;50.520;30.486;2022-12-07T03:51:25;100172.06;;;-3.52;100.00
45253;BME280;63171;50.520;30.486;2022-12-07T03:52:23;100176.31;;;-3.54;100.00
45253;BME280;63171;50.520;30.486;2022-12-07T03:53:18;100166.94;;;-3.43;100.00
45253;BME280;63171;50.520;30.486;2022-12-07T03:54:14;100174.63;;;-3.41;100.00
45253;BME280;63171;50.520;30.486;2022-12-07T03:55:09;100179.72;;;-3.29;100.00
45253;BME280;63171;50.520;30.486;2022-12-07T03:56:03;100170.31;;;-3.36;100.00
45253;BME280;63171;50.520;30.486;2022-12-07T03:56:54;100178.00;;;-3.29;100.00
45253;BME280;63171;50.520;30.486;2022-12-07T03:57:48;100168.63;;;-3.39;100.00
45253;BME280;63171;50.520;30.486;2022-12-07T03:58:39;100162.66;;;-3.32;100.00
45253;BME280;63171;50.520;30.486;2022-12-07T03:59:31;100182.28;;;-3.37;100.00
45253;BME280;63171;50.520;30.486;2022-12-07T04:00:22;100172.06;;;-3.58;100.00
45253;BME280;63171;50.520;30.486;2022-12-07T04:01:14;100166.09;;;-3.46;100.00
45253;BME280;63171;50.520;30.486;2022-12-07T04:02:06;100162.69;;;-3.47;100.00
45253;BME280;63171;50.520;30.486;2022-12-07T04:02:57;100178.88;;;-3.33;100.00
45253;BME280;63171;50.520;30.486;2022-12-07T04:03:47;100166.09;;;-3.46;100.00
45253;BME280;63171;50.520;30.486;2022-12-07T04:04:38;100161.81;;;-3.34;100.00
45253;BME280;63171;50.520;30.486;2022-12-07T04:05:28;100154.97;;;-3.25;100.00
45253;BME280;63171;50.520;30.486;2022-12-07T04:06:19;100176.31;;;-3.28;100.00
45253;BME280;63171;50.520;30.486;2022-12-07T04:07:09;100160.97;;;-3.46;100.00
45253;BME280;63171;50.520;30.486;2022-12-07T04:08:00;100153.28;;;-3.54;100.00
45253;BME280;63171;50.520;30.486;2022-12-07T04:08:50;100158.41;;;-3.62;100.00
45253;BME280;63171;50.520;30.486;2022-12-07T04:09:41;100165.25;;;-3.58;100.00
45253;BME280;63171;50.520;30.486;2022-12-07T04:10:30;100155.84;;;-3.54;100.00
45253;BME280;63171;50.520;30.486;2022-12-07T04:11:21;100162.66;;;-3.53;100.00
45253;BME280;63171;50.520;30.486;2022-12-07T04:12:11;100160.09;;;-3.53;100.00
45253;BME280;63171;50.520;30.486;2022-12-07T04:13:02;100165.25;;;-3.56;100.00
45253;BME280;63171;50.520;30.486;2022-12-07T04:13:52;100160.09;;;-3.48;100.00
45253;BME280;63171;50.520;30.486;2022-12-07T04:15:00;100153.28;;;-3.54;100.00
45253;BME280;63171;50.520;30.486;2022-12-07T04:15:50;100155.84;;;-3.51;100.00
45253;BME280;63171;50.520;30.486;2022-12-07T04:16:42;100161.78;;;-3.37;100.00
45253;BME280;63171;50.520;30.486;2022-12-07T04:17:32;100165.22;;;-3.36;100.00
45253;BME280;63171;50.520;30.486;2022-12-07T04:18:22;100168.63;;;-3.49;100.00
45253;BME280;63171;50.520;30.486;2022-12-07T04:19:14;100153.28;;;-3.42;100.00
45253;BME280;63171;50.520;30.486;2022-12-07T04:20:05;100167.78;;;-3.44;100.00
45253;BME280;63171;50.520;30.486;2022-12-07T04:20:56;100169.50;;;-3.53;100.00
45253;BME280;63171;50.520;30.486;2022-12-07T04:21:46;100161.81;;;-3.53;100.00
45253;BME280;63171;50.520;30.486;2022-12-07T04:22:37;100144.75;;;-3.53;100.00
45253;BME280;63171;50.520;30.486;2022-12-07T04:23:27;100156.69;;;-3.47;100.00
45253;BME280;63171;50.520;30.486;2022-12-07T04:24:17;100160.09;;;-3.53;100.00
45253;BME280;63171;50.520;30.486;2022-12-07T04:25:07;100169.50;;;-3.57;100.00
45253;BME280;63171;50.520;30.486;2022-12-07T04:25:58;100161.81;;;-3.58;100.00
45253;BME280;63171;50.520;30.486;2022-12-07T04:26:48;100141.34;;;-3.52;100.00
45253;BME280;63171;50.520;30.486;2022-12-07T04:27:39;100170.38;;;-3.59;100.00
45253;BME280;63171;50.520;30.486;2022-12-07T04:28:29;100152.41;;;-3.61;100.00
45253;BME280;63171;50.520;30.486;2022-12-07T04:29:20;100154.13;;;-3.61;100.00
45253;BME280;63171;50.520;30.486;2022-12-07T04:30:10;100159.25;;;-3.55;100.00
45253;BME280;63171;50.520;30.486;2022-12-07T04:31:00;100148.19;;;-3.60;100.00
45253;BME280;63171;50.520;30.486;2022-12-07T04:31:52;100156.69;;;-3.55;100.00
45253;BME280;63171;50.520;30.486;2022-12-07T04:32:42;100160.09;;;-3.50;100.00
45253;BME280;63171;50.520;30.486;2022-12-07T04:33:33;100150.72;;;-3.51;100.00
45253;BME280;63171;50.520;30.486;2022-12-07T04:34:24;100154.97;;;-3.50;100.00
45253;BME280;63171;50.520;30.486;2022-12-07T04:35:15;100156.69;;;-3.49;100.00
45253;BME280;63171;50.520;30.486;2022-12-07T04:36:05;100155.00;;;-3.64;100.00